sensor_id;sensor_type;location;lat;lon;timestamp;P1;durP1;ratioP1;P2;durP2;ratioP2
6203;SDS011;3135;42.602;23.468;2022-12-29T00:01:23;30.93;;;12.60;;
6203;SDS011;3135;42.602;23.468;2022-12-29T00:03:49;31.38;;;12.65;;
6203;SDS011;3135;42.602;23.468;2022-12-29T00:06:14;31.58;;;12.57;;
6203;SDS011;3135;42.602;23.468;2022-12-29T00:08:39;23.45;;;10.27;;
6203;SDS011;3135;42.602;23.468;2022-12-29T00:11:09;23.48;;;10.02;;
6203;SDS011;3135;42.602;23.468;2022-12-29T00:13:36;21.17;;;9.43;;
6203;SDS011;3135;42.602;23.468;2022-12-29T00:16:20;20.93;;;9.10;;
6203;SDS011;3135;42.602;23.468;2022-12-29T00:18:46;18.92;;;8.95;;
6203;SDS011;3135;42.602;23.468;2022-12-29T00:21:16;18.60;;;8.40;;
6203;SDS011;3135;42.602;23.468;2022-12-29T00:24:01;40.13;;;13.77;;
6203;SDS011;3135;42.602;23.468;2022-12-29T00:26:45;37.05;;;12.93;;
6203;SDS011;3135;42.602;23.468;2022-12-29T00:29:32;25.70;;;10.93;;
6203;SDS011;3135;42.602;23.468;2022-12-29T00:32:15;26.40;;;11.00;;
6203;SDS011;3135;42.602;23.468;2022-12-29T00:34:59;21.27;;;9.73;;
6203;SDS011;3135;42.602;23.468;2022-12-29T00:37:37;23.05;;;10.15;;
6203;SDS011;3135;42.602;23.468;2022-12-29T00:40:25;31.30;;;12.45;;
6203;SDS011;3135;42.602;23.468;2022-12-29T00:43:09;27.77;;;11.25;;
6203;SDS011;3135;42.602;23.468;2022-12-29T00:45:53;24.38;;;10.32;;
6203;SDS011;3135;42.602;23.468;2022-12-29T00:48:18;20.07;;;8.80;;
6203;SDS011;3135;42.602;23.468;2022-12-29T00:51:03;25.07;;;9.77;;
6203;SDS011;3135;42.602;23.468;2022-12-29T00:53:29;24.40;;;10.30;;
6203;SDS011;3135;42.602;23.468;2022-12-29T00:55:54;20.17;;;9.33;;
6203;SDS011;3135;42.602;23.468;2022-12-29T00:58:20;20.53;;;8.90;;
6203;SDS011;3135;42.602;23.468;2022-12-29T01:00:45;19.97;;;9.00;;
6203;SDS011;3135;42.602;23.468;2022-12-29T01:03:11;18.10;;;8.13;;
6203;SDS011;3135;42.602;23.468;2022-12-29T01:05:36;22.60;;;9.37;;
6203;SDS011;3135;42.602;23.468;2022-12-29T01:08:02;24.87;;;10.30;;
6203;SDS011;3135;42.602;23.468;2022-12-29T01:10:27;19.30;;;9.20;;
6203;SDS011;3135;42.602;23.468;2022-12-29T01:12:53;20.58;;;8.65;;
6203;SDS011;3135;42.602;23.468;2022-12-29T01:15:19;17.37;;;7.90;;
6203;SDS011;3135;42.602;23.468;2022-12-29T01:17:44;15.57;;;7.10;;
6203;SDS011;3135;42.602;23.468;2022-12-29T01:20:10;22.50;;;9.17;;
6203;SDS011;3135;42.602;23.468;2022-12-29T01:22:36;19.13;;;8.05;;
6203;SDS011;3135;42.602;23.468;2022-12-29T01:25:01;18.67;;;8.17;;
6203;SDS011;3135;42.602;23.468;2022-12-29T01:27:28;23.67;;;10.75;;
6203;SDS011;3135;42.602;23.468;2022-12-29T01:29:53;23.10;;;9.20;;
6203;SDS011;3135;42.602;23.468;2022-12-29T01:32:18;20.90;;;8.40;;
6203;SDS011;3135;42.602;23.468;2022-12-29T01:34:44;15.02;;;7.35;;
6203;SDS011;3135;42.602;23.468;2022-12-29T01:37:10;17.35;;;7.88;;
6203;SDS011;3135;42.602;23.468;2022-12-29T01:39:35;21.60;;;9.03;;
6203;SDS011;3135;42.602;23.468;2022-12-29T01:42:01;18.03;;;8.20;;
6203;SDS011;3135;42.602;23.468;2022-12-29T01:44:46;21.20;;;9.27;;
6203;SDS011;3135;42.602;23.468;2022-12-29T01:47:25;22.58;;;10.25;;
6203;SDS011;3135;42.602;23.468;2022-12-29T01:50:03;20.23;;;9.45;;
6203;SDS011;3135;42.602;23.468;2022-12-29T01:52:33;22.70;;;9.50;;
6203;SDS011;3135;42.602;23.468;2022-12-29T01:55:02;19.40;;;9.00;;
6203;SDS011;3135;42.602;23.468;2022-12-29T01:57:31;17.45;;;8.57;;
6203;SDS011;3135;42.602;23.468;2022-12-29T02:00:08;18.53;;;9.00;;
6203;SDS011;3135;42.602;23.468;2022-12-29T02:02:35;18.50;;;8.77;;
6203;SDS011;3135;42.602;23.468;2022-12-29T02:05:09;20.50;;;9.15;;
6203;SDS011;3135;42.602;23.468;2022-12-29T02:07:55;17.98;;;8.48;;
6203;SDS011;3135;42.602;23.468;2022-12-29T02:10:21;22.80;;;9.83;;
6203;SDS011;3135;42.602;23.468;2022-12-29T02:12:48;22.27;;;9.93;;
6203;SDS011;3135;42.602;23.468;2022-12-29T02:15:13;29.87;;;11.77;;
6203;SDS011;3135;42.602;23.468;2022-12-29T02:20:45;22.23;;;9.90;;
6203;SDS011;3135;42.602;23.468;2022-12-29T02:26:40;24.27;;;10.07;;
6203;SDS011;3135;42.602;23.468;2022-12-29T02:29:29;19.13;;;8.57;;
6203;SDS011;3135;42.602;23.468;2022-12-29T02:32:05;18.23;;;8.50;;
6203;SDS011;3135;42.602;23.468;2022-12-29T02:37:20;67.10;;;21.40;;
6203;SDS011;3135;42.602;23.468;2022-12-29T02:42:36;29.20;;;13.93;;
6203;SDS011;3135;42.602;23.468;2022-12-29T02:48:20;28.80;;;13.40;;
6203;SDS011;3135;42.602;23.468;2022-12-29T02:53:37;19.08;;;9.40;;
6203;SDS011;3135;42.602;23.468;2022-12-29T02:56:22;23.58;;;12.77;;
6203;SDS011;3135;42.602;23.468;2022-12-29T02:58:47;25.60;;;13.90;;
6203;SDS011;3135;42.602;23.468;2022-12-29T03:01:24;20.93;;;10.77;;
6203;SDS011;3135;42.602;23.468;2022-12-29T03:15:11;17.95;;;8.50;;
6203;SDS011;3135;42.602;23.468;2022-12-29T03:18:05;16.90;;;7.53;;
6203;SDS011;3135;42.602;23.468;2022-12-29T03:20:48;20.23;;;9.48;;
6203;SDS011;3135;42.602;23.468;2022-12-29T03:23:15;20.70;;;9.38;;
6203;SDS011;3135;42.602;23.468;2022-12-29T03:25:44;19.43;;;9.10;;
6203;SDS011;3135;42.602;23.468;2022-12-29T03:28:14;23.00;;;9.45;;
6203;SDS011;3135;42.602;23.468;2022-12-29T03:30:47;18.83;;;9.00;;
6203;SDS011;3135;42.602;23.468;2022-12-29T03:33:14;22.70;;;10.77;;
6203;SDS011;3135;42.602;23.468;2022-12-29T03:35:42;25.88;;;13.70;;
6203;SDS011;3135;42.602;23.468;2022-12-29T03:38:22;21.65;;;10.07;;
6203;SDS011;3135;42.602;23.468;2022-12-29T03:40:58;22.80;;;10.38;;
6203;SDS011;3135;42.602;23.468;2022-12-29T03:43:27;21.80;;;10.05;;
6203;SDS011;3135;42.602;23.468;2022-12-29T03:45:54;19.20;;;9.77;;
6203;SDS011;3135;42.602;23.468;2022-12-29T03:48:19;24.47;;;10.97;;
6203;SDS011;3135;42.602;23.468;2022-12-29T03:50:45;24.57;;;10.47;;
6203;SDS011;3135;42.602;23.468;2022-12-29T03:53:10;22.77;;;10.83;;
6203;SDS011;3135;42.602;23.468;2022-12-29T03:55:35;22.03;;;10.07;;
6203;SDS011;3135;42.602;23.468;2022-12-29T03:58:01;19.17;;;9.68;;
6203;SDS011;3135;42.602;23.468;2022-12-29T04:00:26;24.17;;;11.02;;
6203;SDS011;3135;42.602;23.468;2022-12-29T04:02:53;33.30;;;16.52;;
6203;SDS011;3135;42.602;23.468;2022-12-29T04:05:18;26.03;;;12.30;;
6203;SDS011;3135;42.602;23.468;2022-12-29T04:07:44;21.53;;;9.77;;
6203;SDS011;3135;42.602;23.468;2022-12-29T04:10:09;26.17;;;10.50;;
6203;SDS011;3135;42.602;23.468;2022-12-29T04:12:35;17.77;;;8.73;;
6203;SDS011;3135;42.602;23.468;2022-12-29T04:15:00;18.27;;;8.50;;
6203;SDS011;3135;42.602;23.468;2022-12-29T04:17:25;22.95;;;9.88;;
6203;SDS011;3135;42.602;23.468;2022-12-29T04:19:51;23.50;;;9.48;;
6203;SDS011;3135;42.602;23.468;2022-12-29T04:22:36;18.17;;;8.90;;
6203;SDS011;3135;42.602;23.468;2022-12-29T04:25:02;21.03;;;8.80;;
6203;SDS011;3135;42.602;23.468;2022-12-29T04:27:27;18.77;;;9.17;;
6203;SDS011;3135;42.602;23.468;2022-12-29T04:29:52;18.53;;;8.03;;
6203;SDS011;3135;42.602;23.468;2022-12-29T04:32:18;16.83;;;8.50;;
6203;SDS011;3135;42.602;23.468;2022-12-29T04:34:43;15.77;;;7.83;;
6203;SDS011;3135;42.602;23.468;2022-12-29T04:37:09;17.47;;;7.70;;
6203;SDS011;3135;42.602;23.468;2022-12-29T04:39:34;13.73;;;7.10;;
6203;SDS011;3135;42.602;23.468;2022-12-29T04:41:59;17.10;;;7.43;;
6203;SDS011;3135;42.602;23.468;2022-12-29T04:44:25;14.60;;;7.40;;
6203;SDS011;3135;42.602;23.468;2022-12-29T04:46:50;14.20;;;7.27;;
6203;SDS011;3135;42.602;23.468;2022-12-29T04:49:16;17.47;;;8.07;;
6203;SDS011;3135;42.602;23.468;2022-12-29T04:51:41;17.60;;;8.00;;
6203;SDS011;3135;42.602;23.468;2022-12-29T04:54:06;23.48;;;9.57;;
6203;SDS011;3135;42.602;23.468;2022-12-29T04:56:32;25.95;;;10.02;;
6203;SDS011;3135;42.602;23.468;2022-12-29T04:58:57;16.10;;;7.65;;
6203;SDS011;3135;42.602;23.468;2022-12-29T05:01:23;16.43;;;7.73;;
6203;SDS011;3135;42.602;23.468;2022-12-29T05:03:49;17.67;;;7.27;;
6203;SDS011;3135;42.602;23.468;2022-12-29T05:06:16;15.13;;;7.18;;
6203;SDS011;3135;42.602;23.468;2022-12-29T05:08:41;16.43;;;7.47;;
6203;SDS011;3135;42.602;23.468;2022-12-29T05:11:06;15.47;;;7.30;;
6203;SDS011;3135;42.602;23.468;2022-12-29T05:13:32;16.90;;;7.50;;
6203;SDS011;3135;42.602;23.468;2022-12-29T05:15:57;13.43;;;6.72;;
6203;SDS011;3135;42.602;23.468;2022-12-29T05:18:23;19.63;;;8.60;;
6203;SDS011;3135;42.602;23.468;2022-12-29T05:20:48;16.00;;;7.90;;
6203;SDS011;3135;42.602;23.468;2022-12-29T05:23:14;17.13;;;7.63;;
6203;SDS011;3135;42.602;23.468;2022-12-29T05:25:40;16.90;;;7.80;;
6203;SDS011;3135;42.602;23.468;2022-12-29T05:28:06;17.40;;;8.07;;
6203;SDS011;3135;42.602;23.468;2022-12-29T05:30:31;16.67;;;7.20;;
6203;SDS011;3135;42.602;23.468;2022-12-29T05:32:56;39.43;;;16.17;;
6203;SDS011;3135;42.602;23.468;2022-12-29T05:35:22;432.25;;;102.50;;
6203;SDS011;3135;42.602;23.468;2022-12-29T05:37:47;42.67;;;12.77;;
6203;SDS011;3135;42.602;23.468;2022-12-29T05:40:13;55.15;;;16.70;;
6203;SDS011;3135;42.602;23.468;2022-12-29T05:42:38;23.88;;;9.93;;
6203;SDS011;3135;42.602;23.468;2022-12-29T05:45:04;21.57;;;9.67;;
6203;SDS011;3135;42.602;23.468;2022-12-29T05:47:32;27.50;;;13.88;;
6203;SDS011;3135;42.602;23.468;2022-12-29T05:49:57;28.80;;;14.15;;
6203;SDS011;3135;42.602;23.468;2022-12-29T05:52:23;21.40;;;10.50;;
6203;SDS011;3135;42.602;23.468;2022-12-29T05:54:48;28.13;;;14.13;;
6203;SDS011;3135;42.602;23.468;2022-12-29T05:57:14;20.90;;;9.07;;
6203;SDS011;3135;42.602;23.468;2022-12-29T05:59:39;18.40;;;8.23;;
6203;SDS011;3135;42.602;23.468;2022-12-29T06:02:04;17.13;;;7.77;;
6203;SDS011;3135;42.602;23.468;2022-12-29T06:04:30;17.93;;;8.20;;
6203;SDS011;3135;42.602;23.468;2022-12-29T06:06:55;18.70;;;8.03;;
6203;SDS011;3135;42.602;23.468;2022-12-29T06:09:21;17.67;;;8.50;;
6203;SDS011;3135;42.602;23.468;2022-12-29T06:11:46;19.53;;;9.03;;
6203;SDS011;3135;42.602;23.468;2022-12-29T06:14:11;28.20;;;14.00;;
6203;SDS011;3135;42.602;23.468;2022-12-29T06:16:37;23.52;;;11.75;;
6203;SDS011;3135;42.602;23.468;2022-12-29T06:19:02;21.05;;;10.20;;
6203;SDS011;3135;42.602;23.468;2022-12-29T06:21:28;23.00;;;11.25;;
6203;SDS011;3135;42.602;23.468;2022-12-29T06:23:53;23.10;;;10.57;;
6203;SDS011;3135;42.602;23.468;2022-12-29T06:26:18;18.80;;;8.90;;
6203;SDS011;3135;42.602;23.468;2022-12-29T06:28:44;24.20;;;11.07;;
6203;SDS011;3135;42.602;23.468;2022-12-29T06:31:09;19.80;;;9.33;;
6203;SDS011;3135;42.602;23.468;2022-12-29T06:33:36;54.05;;;21.85;;
6203;SDS011;3135;42.602;23.468;2022-12-29T06:36:02;64.78;;;23.90;;
6203;SDS011;3135;42.602;23.468;2022-12-29T06:38:27;51.95;;;20.50;;
6203;SDS011;3135;42.602;23.468;2022-12-29T06:40:53;39.87;;;16.73;;
6203;SDS011;3135;42.602;23.468;2022-12-29T06:43:18;51.13;;;19.70;;
6203;SDS011;3135;42.602;23.468;2022-12-29T06:45:44;74.20;;;28.13;;
6203;SDS011;3135;42.602;23.468;2022-12-29T06:48:09;55.50;;;22.47;;
6203;SDS011;3135;42.602;23.468;2022-12-29T06:50:35;44.27;;;18.80;;
6203;SDS011;3135;42.602;23.468;2022-12-29T06:53:00;44.27;;;19.23;;
6203;SDS011;3135;42.602;23.468;2022-12-29T06:55:26;30.33;;;13.00;;
6203;SDS011;3135;42.602;23.468;2022-12-29T06:57:54;21.43;;;9.63;;
6203;SDS011;3135;42.602;23.468;2022-12-29T07:00:23;29.50;;;13.57;;
6203;SDS011;3135;42.602;23.468;2022-12-29T07:02:49;52.75;;;23.30;;
6203;SDS011;3135;42.602;23.468;2022-12-29T07:05:14;39.17;;;19.67;;
6203;SDS011;3135;42.602;23.468;2022-12-29T07:07:40;101.50;;;37.75;;
6203;SDS011;3135;42.602;23.468;2022-12-29T07:10:05;101.30;;;36.55;;
6203;SDS011;3135;42.602;23.468;2022-12-29T07:12:31;82.32;;;32.63;;
6203;SDS011;3135;42.602;23.468;2022-12-29T07:14:56;69.20;;;27.33;;
6203;SDS011;3135;42.602;23.468;2022-12-29T07:17:22;72.07;;;26.97;;
6203;SDS011;3135;42.602;23.468;2022-12-29T07:19:47;52.07;;;20.87;;
6203;SDS011;3135;42.602;23.468;2022-12-29T07:22:13;43.03;;;18.43;;
6203;SDS011;3135;42.602;23.468;2022-12-29T07:24:38;51.03;;;19.90;;
6203;SDS011;3135;42.602;23.468;2022-12-29T07:27:03;43.30;;;17.63;;
6203;SDS011;3135;42.602;23.468;2022-12-29T07:29:29;42.47;;;17.20;;
6203;SDS011;3135;42.602;23.468;2022-12-29T07:31:54;49.25;;;19.08;;
6203;SDS011;3135;42.602;23.468;2022-12-29T07:34:20;60.00;;;22.33;;
6203;SDS011;3135;42.602;23.468;2022-12-29T07:36:45;67.73;;;25.00;;
6203;SDS011;3135;42.602;23.468;2022-12-29T07:39:11;65.53;;;25.13;;
6203;SDS011;3135;42.602;23.468;2022-12-29T07:41:37;91.40;;;32.97;;
6203;SDS011;3135;42.602;23.468;2022-12-29T07:44:02;103.23;;;34.23;;
6203;SDS011;3135;42.602;23.468;2022-12-29T07:46:28;91.73;;;35.13;;
6203;SDS011;3135;42.602;23.468;2022-12-29T07:48:53;111.85;;;39.90;;
6203;SDS011;3135;42.602;23.468;2022-12-29T07:51:18;94.65;;;37.08;;
6203;SDS011;3135;42.602;23.468;2022-12-29T07:53:44;98.07;;;36.88;;
6203;SDS011;3135;42.602;23.468;2022-12-29T07:56:09;109.13;;;38.65;;
6203;SDS011;3135;42.602;23.468;2022-12-29T07:58:35;103.32;;;39.33;;
6203;SDS011;3135;42.602;23.468;2022-12-29T08:01:00;107.53;;;40.17;;
6203;SDS011;3135;42.602;23.468;2022-12-29T08:03:26;108.93;;;41.10;;
6203;SDS011;3135;42.602;23.468;2022-12-29T08:05:51;115.53;;;44.17;;
6203;SDS011;3135;42.602;23.468;2022-12-29T08:08:17;109.00;;;39.90;;
6203;SDS011;3135;42.602;23.468;2022-12-29T08:10:42;115.25;;;41.78;;
6203;SDS011;3135;42.602;23.468;2022-12-29T08:13:08;111.85;;;42.22;;
6203;SDS011;3135;42.602;23.468;2022-12-29T08:15:33;80.93;;;33.70;;
6203;SDS011;3135;42.602;23.468;2022-12-29T08:17:59;73.87;;;30.00;;
6203;SDS011;3135;42.602;23.468;2022-12-29T08:20:25;63.58;;;26.42;;
6203;SDS011;3135;42.602;23.468;2022-12-29T08:22:51;58.97;;;24.13;;
6203;SDS011;3135;42.602;23.468;2022-12-29T08:25:16;67.50;;;28.27;;
6203;SDS011;3135;42.602;23.468;2022-12-29T08:27:42;70.93;;;28.90;;
6203;SDS011;3135;42.602;23.468;2022-12-29T08:30:07;66.90;;;26.63;;
6203;SDS011;3135;42.602;23.468;2022-12-29T08:32:33;79.43;;;31.08;;
6203;SDS011;3135;42.602;23.468;2022-12-29T08:34:59;68.30;;;28.67;;
6203;SDS011;3135;42.602;23.468;2022-12-29T08:37:24;57.27;;;24.87;;
6203;SDS011;3135;42.602;23.468;2022-12-29T08:39:50;49.67;;;22.47;;
6203;SDS011;3135;42.602;23.468;2022-12-29T08:42:15;48.60;;;19.98;;
6203;SDS011;3135;42.602;23.468;2022-12-29T08:44:41;47.55;;;19.25;;
6203;SDS011;3135;42.602;23.468;2022-12-29T08:47:06;40.95;;;17.30;;
6203;SDS011;3135;42.602;23.468;2022-12-29T08:49:32;36.25;;;16.20;;
6203;SDS011;3135;42.602;23.468;2022-12-29T08:51:58;37.90;;;15.73;;
6203;SDS011;3135;42.602;23.468;2022-12-29T08:54:24;38.83;;;16.33;;
6203;SDS011;3135;42.602;23.468;2022-12-29T08:56:49;40.97;;;17.00;;
6203;SDS011;3135;42.602;23.468;2022-12-29T08:59:15;38.63;;;16.42;;
6203;SDS011;3135;42.602;23.468;2022-12-29T09:01:40;36.75;;;15.68;;
6203;SDS011;3135;42.602;23.468;2022-12-29T09:04:06;40.15;;;16.73;;
6203;SDS011;3135;42.602;23.468;2022-12-29T09:06:32;34.22;;;15.82;;
6203;SDS011;3135;42.602;23.468;2022-12-29T09:08:58;42.92;;;17.58;;
6203;SDS011;3135;42.602;23.468;2022-12-29T09:11:24;53.70;;;21.17;;
6203;SDS011;3135;42.602;23.468;2022-12-29T09:13:50;57.22;;;23.00;;
6203;SDS011;3135;42.602;23.468;2022-12-29T09:16:17;63.53;;;24.30;;
6203;SDS011;3135;42.602;23.468;2022-12-29T09:18:43;61.90;;;23.55;;
6203;SDS011;3135;42.602;23.468;2022-12-29T09:21:09;55.85;;;22.42;;
6203;SDS011;3135;42.602;23.468;2022-12-29T09:23:35;59.85;;;24.85;;
6203;SDS011;3135;42.602;23.468;2022-12-29T09:26:01;59.67;;;24.20;;
6203;SDS011;3135;42.602;23.468;2022-12-29T09:28:27;52.70;;;22.15;;
6203;SDS011;3135;42.602;23.468;2022-12-29T09:30:53;50.10;;;21.50;;
6203;SDS011;3135;42.602;23.468;2022-12-29T09:33:19;52.73;;;21.70;;
6203;SDS011;3135;42.602;23.468;2022-12-29T09:35:49;53.80;;;22.50;;
6203;SDS011;3135;42.602;23.468;2022-12-29T09:38:22;51.83;;;20.60;;
6203;SDS011;3135;42.602;23.468;2022-12-29T09:40:49;50.90;;;20.60;;
6203;SDS011;3135;42.602;23.468;2022-12-29T09:43:26;46.33;;;20.33;;
6203;SDS011;3135;42.602;23.468;2022-12-29T09:46:03;41.30;;;17.75;;
6203;SDS011;3135;42.602;23.468;2022-12-29T09:48:34;43.72;;;18.80;;
6203;SDS011;3135;42.602;23.468;2022-12-29T09:51:03;40.65;;;17.52;;
6203;SDS011;3135;42.602;23.468;2022-12-29T09:53:44;36.92;;;15.57;;
6203;SDS011;3135;42.602;23.468;2022-12-29T09:56:17;37.65;;;16.60;;
6203;SDS011;3135;42.602;23.468;2022-12-29T09:58:54;34.35;;;15.48;;
6203;SDS011;3135;42.602;23.468;2022-12-29T10:01:31;35.88;;;15.80;;
6203;SDS011;3135;42.602;23.468;2022-12-29T10:04:02;35.95;;;15.48;;
6203;SDS011;3135;42.602;23.468;2022-12-29T10:09:07;36.70;;;15.45;;
6203;SDS011;3135;42.602;23.468;2022-12-29T10:11:57;38.20;;;15.75;;
6203;SDS011;3135;42.602;23.468;2022-12-29T10:26:14;33.50;;;14.68;;
6203;SDS011;3135;42.602;23.468;2022-12-29T10:29:26;36.03;;;15.43;;
6203;SDS011;3135;42.602;23.468;2022-12-29T10:31:43;36.28;;;15.63;;
6203;SDS011;3135;42.602;23.468;2022-12-29T10:34:18;37.28;;;16.52;;
6203;SDS011;3135;42.602;23.468;2022-12-29T10:36:52;37.40;;;16.17;;
6203;SDS011;3135;42.602;23.468;2022-12-29T10:39:28;38.97;;;17.67;;
6203;SDS011;3135;42.602;23.468;2022-12-29T10:42:04;41.25;;;18.15;;
6203;SDS011;3135;42.602;23.468;2022-12-29T10:44:36;41.10;;;18.30;;
6203;SDS011;3135;42.602;23.468;2022-12-29T10:47:15;44.33;;;20.80;;
6203;SDS011;3135;42.602;23.468;2022-12-29T10:49:45;38.63;;;16.43;;
6203;SDS011;3135;42.602;23.468;2022-12-29T10:52:13;37.35;;;16.15;;
6203;SDS011;3135;42.602;23.468;2022-12-29T10:59:58;42.67;;;19.40;;
6203;SDS011;3135;42.602;23.468;2022-12-29T11:05:54;40.33;;;18.73;;
6203;SDS011;3135;42.602;23.468;2022-12-29T11:08:31;39.42;;;18.33;;
6203;SDS011;3135;42.602;23.468;2022-12-29T11:11:01;40.97;;;18.30;;
6203;SDS011;3135;42.602;23.468;2022-12-29T11:13:29;40.47;;;17.52;;
6203;SDS011;3135;42.602;23.468;2022-12-29T11:15:56;35.20;;;16.85;;
6203;SDS011;3135;42.602;23.468;2022-12-29T11:18:26;43.95;;;17.13;;
6203;SDS011;3135;42.602;23.468;2022-12-29T11:21:03;37.67;;;16.50;;
6203;SDS011;3135;42.602;23.468;2022-12-29T11:28:36;41.25;;;17.70;;
6203;SDS011;3135;42.602;23.468;2022-12-29T11:31:03;42.25;;;18.30;;
6203;SDS011;3135;42.602;23.468;2022-12-29T11:33:30;42.20;;;18.05;;
6203;SDS011;3135;42.602;23.468;2022-12-29T11:35:58;51.63;;;21.08;;
6203;SDS011;3135;42.602;23.468;2022-12-29T11:38:29;47.38;;;21.13;;
6203;SDS011;3135;42.602;23.468;2022-12-29T11:41:01;49.92;;;20.85;;
6203;SDS011;3135;42.602;23.468;2022-12-29T11:43:32;46.83;;;20.13;;
6203;SDS011;3135;42.602;23.468;2022-12-29T11:46:02;47.42;;;19.00;;
6203;SDS011;3135;42.602;23.468;2022-12-29T11:48:48;44.43;;;18.60;;
6203;SDS011;3135;42.602;23.468;2022-12-29T11:51:20;46.63;;;20.65;;
6203;SDS011;3135;42.602;23.468;2022-12-29T11:53:53;41.80;;;19.20;;
6203;SDS011;3135;42.602;23.468;2022-12-29T11:56:41;39.15;;;17.95;;
6203;SDS011;3135;42.602;23.468;2022-12-29T12:01:52;43.95;;;18.75;;
6203;SDS011;3135;42.602;23.468;2022-12-29T12:04:21;43.63;;;18.40;;
6203;SDS011;3135;42.602;23.468;2022-12-29T12:06:57;44.30;;;18.13;;
6203;SDS011;3135;42.602;23.468;2022-12-29T12:09:32;41.40;;;17.75;;
6203;SDS011;3135;42.602;23.468;2022-12-29T12:11:59;36.67;;;16.60;;
6203;SDS011;3135;42.602;23.468;2022-12-29T12:14:28;36.42;;;16.48;;
6203;SDS011;3135;42.602;23.468;2022-12-29T12:17:01;41.50;;;18.63;;
6203;SDS011;3135;42.602;23.468;2022-12-29T12:19:36;41.65;;;17.33;;
6203;SDS011;3135;42.602;23.468;2022-12-29T12:22:13;40.33;;;17.05;;
6203;SDS011;3135;42.602;23.468;2022-12-29T12:24:58;37.85;;;16.55;;
6203;SDS011;3135;42.602;23.468;2022-12-29T12:27:36;35.15;;;15.93;;
6203;SDS011;3135;42.602;23.468;2022-12-29T12:30:14;37.33;;;15.63;;
6203;SDS011;3135;42.602;23.468;2022-12-29T12:32:56;35.10;;;16.70;;
6203;SDS011;3135;42.602;23.468;2022-12-29T12:43:39;34.15;;;15.48;;
6203;SDS011;3135;42.602;23.468;2022-12-29T13:07:46;49.03;;;18.00;;
6203;SDS011;3135;42.602;23.468;2022-12-29T13:13:27;39.13;;;15.73;;
6203;SDS011;3135;42.602;23.468;2022-12-29T13:16:13;36.20;;;14.90;;
6203;SDS011;3135;42.602;23.468;2022-12-29T13:24:10;48.63;;;20.65;;
6203;SDS011;3135;42.602;23.468;2022-12-29T13:27:23;40.60;;;18.73;;
6203;SDS011;3135;42.602;23.468;2022-12-29T13:32:34;59.40;;;29.73;;
6203;SDS011;3135;42.602;23.468;2022-12-29T13:37:47;38.97;;;17.85;;
6203;SDS011;3135;42.602;23.468;2022-12-29T13:40:35;45.38;;;21.77;;
6203;SDS011;3135;42.602;23.468;2022-12-29T13:43:05;36.80;;;17.02;;
6203;SDS011;3135;42.602;23.468;2022-12-29T13:45:32;32.83;;;14.68;;
6203;SDS011;3135;42.602;23.468;2022-12-29T13:48:05;28.63;;;13.55;;
6203;SDS011;3135;42.602;23.468;2022-12-29T13:50:40;36.90;;;17.40;;
6203;SDS011;3135;42.602;23.468;2022-12-29T13:56:31;34.78;;;14.73;;
6203;SDS011;3135;42.602;23.468;2022-12-29T14:01:58;37.15;;;17.15;;
6203;SDS011;3135;42.602;23.468;2022-12-29T14:04:56;41.25;;;19.20;;
6203;SDS011;3135;42.602;23.468;2022-12-29T14:07:58;45.50;;;20.33;;
6203;SDS011;3135;42.602;23.468;2022-12-29T14:10:38;44.42;;;20.60;;
6203;SDS011;3135;42.602;23.468;2022-12-29T14:13:18;40.65;;;18.48;;
6203;SDS011;3135;42.602;23.468;2022-12-29T14:15:56;32.90;;;13.80;;
6203;SDS011;3135;42.602;23.468;2022-12-29T14:18:27;27.75;;;12.80;;
6203;SDS011;3135;42.602;23.468;2022-12-29T14:23:44;29.88;;;14.13;;
6203;SDS011;3135;42.602;23.468;2022-12-29T14:28:44;73.28;;;26.17;;
6203;SDS011;3135;42.602;23.468;2022-12-29T14:33:40;59.15;;;30.00;;
6203;SDS011;3135;42.602;23.468;2022-12-29T14:36:24;32.13;;;14.00;;
6203;SDS011;3135;42.602;23.468;2022-12-29T14:38:51;29.45;;;14.65;;
6203;SDS011;3135;42.602;23.468;2022-12-29T14:41:18;28.87;;;14.27;;
6203;SDS011;3135;42.602;23.468;2022-12-29T14:43:56;29.20;;;12.70;;
6203;SDS011;3135;42.602;23.468;2022-12-29T14:46:24;31.63;;;15.73;;
6203;SDS011;3135;42.602;23.468;2022-12-29T14:49:08;25.33;;;11.93;;
6203;SDS011;3135;42.602;23.468;2022-12-29T14:51:40;27.17;;;12.60;;
6203;SDS011;3135;42.602;23.468;2022-12-29T14:57:07;33.83;;;16.98;;
6203;SDS011;3135;42.602;23.468;2022-12-29T14:59:39;34.45;;;16.05;;
6203;SDS011;3135;42.602;23.468;2022-12-29T15:02:12;51.00;;;25.10;;
6203;SDS011;3135;42.602;23.468;2022-12-29T15:04:42;42.05;;;22.75;;
6203;SDS011;3135;42.602;23.468;2022-12-29T15:07:09;31.45;;;13.13;;
6203;SDS011;3135;42.602;23.468;2022-12-29T15:14:59;31.05;;;14.30;;
6203;SDS011;3135;42.602;23.468;2022-12-29T15:17:30;32.80;;;16.65;;
6203;SDS011;3135;42.602;23.468;2022-12-29T15:19:58;38.40;;;15.52;;
6203;SDS011;3135;42.602;23.468;2022-12-29T15:22:25;33.63;;;16.23;;
6203;SDS011;3135;42.602;23.468;2022-12-29T15:24:52;42.13;;;23.05;;
6203;SDS011;3135;42.602;23.468;2022-12-29T15:27:24;55.13;;;30.88;;
6203;SDS011;3135;42.602;23.468;2022-12-29T15:29:58;31.33;;;13.63;;
6203;SDS011;3135;42.602;23.468;2022-12-29T15:32:27;28.50;;;12.20;;
6203;SDS011;3135;42.602;23.468;2022-12-29T15:34:55;27.08;;;11.80;;
6203;SDS011;3135;42.602;23.468;2022-12-29T15:37:32;26.88;;;12.13;;
6203;SDS011;3135;42.602;23.468;2022-12-29T15:40:00;31.53;;;15.30;;
6203;SDS011;3135;42.602;23.468;2022-12-29T15:42:39;32.70;;;13.80;;
6203;SDS011;3135;42.602;23.468;2022-12-29T15:45:12;31.27;;;13.55;;
6203;SDS011;3135;42.602;23.468;2022-12-29T15:47:39;23.75;;;10.90;;
6203;SDS011;3135;42.602;23.468;2022-12-29T15:50:28;28.25;;;12.18;;
6203;SDS011;3135;42.602;23.468;2022-12-29T15:52:54;26.83;;;11.90;;
6203;SDS011;3135;42.602;23.468;2022-12-29T15:57:55;24.48;;;11.80;;
6203;SDS011;3135;42.602;23.468;2022-12-29T16:00:24;23.05;;;11.23;;
6203;SDS011;3135;42.602;23.468;2022-12-29T16:02:52;23.77;;;11.77;;
6203;SDS011;3135;42.602;23.468;2022-12-29T16:05:22;24.20;;;10.60;;
6203;SDS011;3135;42.602;23.468;2022-12-29T16:07:51;24.05;;;11.13;;
6203;SDS011;3135;42.602;23.468;2022-12-29T16:10:26;65.45;;;22.33;;
6203;SDS011;3135;42.602;23.468;2022-12-29T16:13:06;32.55;;;13.60;;
6203;SDS011;3135;42.602;23.468;2022-12-29T16:15:47;24.97;;;12.67;;
6203;SDS011;3135;42.602;23.468;2022-12-29T16:18:30;22.33;;;11.05;;
6203;SDS011;3135;42.602;23.468;2022-12-29T16:20:59;31.98;;;17.63;;
6203;SDS011;3135;42.602;23.468;2022-12-29T16:23:27;25.92;;;15.10;;
6203;SDS011;3135;42.602;23.468;2022-12-29T16:25:55;25.85;;;11.48;;
6203;SDS011;3135;42.602;23.468;2022-12-29T16:28:35;25.13;;;13.47;;
6203;SDS011;3135;42.602;23.468;2022-12-29T16:31:13;99.05;;;50.13;;
6203;SDS011;3135;42.602;23.468;2022-12-29T16:33:53;39.88;;;20.08;;
6203;SDS011;3135;42.602;23.468;2022-12-29T16:36:33;49.60;;;27.02;;
6203;SDS011;3135;42.602;23.468;2022-12-29T16:39:16;42.22;;;23.92;;
6203;SDS011;3135;42.602;23.468;2022-12-29T16:41:50;21.88;;;11.02;;
6203;SDS011;3135;42.602;23.468;2022-12-29T16:44:17;44.00;;;25.35;;
6203;SDS011;3135;42.602;23.468;2022-12-29T16:47:05;73.13;;;24.48;;
6203;SDS011;3135;42.602;23.468;2022-12-29T16:49:48;27.70;;;11.63;;
6203;SDS011;3135;42.602;23.468;2022-12-29T16:52:29;51.17;;;23.52;;
6203;SDS011;3135;42.602;23.468;2022-12-29T16:54:59;26.42;;;12.27;;
6203;SDS011;3135;42.602;23.468;2022-12-29T16:57:29;33.72;;;19.83;;
6203;SDS011;3135;42.602;23.468;2022-12-29T17:00:06;32.63;;;14.75;;
6203;SDS011;3135;42.602;23.468;2022-12-29T17:02:33;62.33;;;28.30;;
6203;SDS011;3135;42.602;23.468;2022-12-29T17:05:12;28.23;;;13.15;;